sensor_id;sensor_type;location;lat;lon;timestamp;P1;durP1;ratioP1;P2;durP2;ratioP2
35518;SDS011;21627;48.216;16.482;2022-10-15T00:01:45;60.50;;;31.23;;
35518;SDS011;21627;48.216;16.482;2022-10-15T00:04:12;56.08;;;30.83;;
35518;SDS011;21627;48.216;16.482;2022-10-15T00:06:39;51.63;;;28.63;;
35518;SDS011;21627;48.216;16.482;2022-10-15T00:09:08;54.85;;;30.88;;
35518;SDS011;21627;48.216;16.482;2022-10-15T00:11:35;56.30;;;31.13;;
35518;SDS011;21627;48.216;16.482;2022-10-15T00:14:02;56.13;;;29.75;;
35518;SDS011;21627;48.216;16.482;2022-10-15T00:16:29;56.03;;;30.65;;
35518;SDS011;21627;48.216;16.482;2022-10-15T00:19:01;56.97;;;30.85;;
35518;SDS011;21627;48.216;16.482;2022-10-15T00:21:28;55.45;;;28.73;;
35518;SDS011;21627;48.216;16.482;2022-10-15T00:23:55;52.92;;;28.65;;
35518;SDS011;21627;48.216;16.482;2022-10-15T00:26:26;59.05;;;29.65;;
35518;SDS011;21627;48.216;16.482;2022-10-15T00:28:56;56.80;;;30.70;;
35518;SDS011;21627;48.216;16.482;2022-10-15T00:31:29;60.50;;;31.45;;
35518;SDS011;21627;48.216;16.482;2022-10-15T00:33:58;52.67;;;29.13;;
35518;SDS011;21627;48.216;16.482;2022-10-15T00:36:32;54.50;;;29.35;;
35518;SDS011;21627;48.216;16.482;2022-10-15T00:39:03;51.35;;;27.92;;
35518;SDS011;21627;48.216;16.482;2022-10-15T00:41:33;56.42;;;27.85;;
35518;SDS011;21627;48.216;16.482;2022-10-15T00:49:42;49.67;;;28.20;;
35518;SDS011;21627;48.216;16.482;2022-10-15T00:52:22;52.20;;;28.88;;
35518;SDS011;21627;48.216;16.482;2022-10-15T00:55:15;54.45;;;29.70;;
35518;SDS011;21627;48.216;16.482;2022-10-15T00:57:50;59.05;;;27.67;;
35518;SDS011;21627;48.216;16.482;2022-10-15T01:00:21;47.83;;;27.70;;
35518;SDS011;21627;48.216;16.482;2022-10-15T01:02:51;50.13;;;27.95;;
35518;SDS011;21627;48.216;16.482;2022-10-15T01:05:18;50.03;;;27.75;;
35518;SDS011;21627;48.216;16.482;2022-10-15T01:07:46;52.67;;;29.42;;
35518;SDS011;21627;48.216;16.482;2022-10-15T01:10:14;53.63;;;29.25;;
35518;SDS011;21627;48.216;16.482;2022-10-15T01:15:15;48.38;;;27.90;;
35518;SDS011;21627;48.216;16.482;2022-10-15T01:18:34;53.03;;;28.80;;
35518;SDS011;21627;48.216;16.482;2022-10-15T01:21:24;52.33;;;30.00;;
35518;SDS011;21627;48.216;16.482;2022-10-15T01:27:16;56.88;;;30.17;;
35518;SDS011;21627;48.216;16.482;2022-10-15T01:32:52;62.38;;;32.25;;
35518;SDS011;21627;48.216;16.482;2022-10-15T01:36:00;53.72;;;32.17;;
35518;SDS011;21627;48.216;16.482;2022-10-15T01:41:42;65.60;;;33.00;;
35518;SDS011;21627;48.216;16.482;2022-10-15T01:44:22;67.53;;;32.65;;
35518;SDS011;21627;48.216;16.482;2022-10-15T01:46:59;59.97;;;33.72;;
35518;SDS011;21627;48.216;16.482;2022-10-15T01:49:31;61.80;;;33.10;;
35518;SDS011;21627;48.216;16.482;2022-10-15T01:52:07;61.25;;;32.72;;
35518;SDS011;21627;48.216;16.482;2022-10-15T01:54:47;62.95;;;33.13;;
35518;SDS011;21627;48.216;16.482;2022-10-15T01:57:22;64.68;;;33.15;;
35518;SDS011;21627;48.216;16.482;2022-10-15T01:59:56;59.47;;;32.00;;
35518;SDS011;21627;48.216;16.482;2022-10-15T02:02:23;64.68;;;31.95;;
35518;SDS011;21627;48.216;16.482;2022-10-15T02:04:51;62.08;;;32.70;;
35518;SDS011;21627;48.216;16.482;2022-10-15T02:10:30;61.38;;;35.28;;
35518;SDS011;21627;48.216;16.482;2022-10-15T02:14:09;64.50;;;34.40;;
35518;SDS011;21627;48.216;16.482;2022-10-15T02:16:43;68.38;;;35.25;;
35518;SDS011;21627;48.216;16.482;2022-10-15T02:19:37;66.15;;;33.63;;
35518;SDS011;21627;48.216;16.482;2022-10-15T02:22:38;64.75;;;34.42;;
35518;SDS011;21627;48.216;16.482;2022-10-15T02:25:33;63.25;;;34.13;;
35518;SDS011;21627;48.216;16.482;2022-10-15T02:28:02;65.15;;;35.70;;
35518;SDS011;21627;48.216;16.482;2022-10-15T02:30:31;65.47;;;36.38;;
35518;SDS011;21627;48.216;16.482;2022-10-15T02:33:02;71.75;;;38.00;;
35518;SDS011;21627;48.216;16.482;2022-10-15T02:35:33;73.53;;;38.05;;
35518;SDS011;21627;48.216;16.482;2022-10-15T02:38:02;76.70;;;38.75;;
35518;SDS011;21627;48.216;16.482;2022-10-15T02:40:34;66.90;;;36.45;;
35518;SDS011;21627;48.216;16.482;2022-10-15T02:43:04;73.82;;;39.22;;
35518;SDS011;21627;48.216;16.482;2022-10-15T02:45:40;71.88;;;38.00;;
35518;SDS011;21627;48.216;16.482;2022-10-15T02:48:11;78.90;;;40.10;;
35518;SDS011;21627;48.216;16.482;2022-10-15T02:50:39;73.70;;;37.63;;
35518;SDS011;21627;48.216;16.482;2022-10-15T02:53:09;80.05;;;40.50;;
35518;SDS011;21627;48.216;16.482;2022-10-15T02:55:37;70.15;;;37.75;;
35518;SDS011;21627;48.216;16.482;2022-10-15T02:58:04;72.28;;;38.10;;
35518;SDS011;21627;48.216;16.482;2022-10-15T03:00:34;76.93;;;38.92;;
35518;SDS011;21627;48.216;16.482;2022-10-15T03:03:02;64.88;;;36.35;;
35518;SDS011;21627;48.216;16.482;2022-10-15T03:05:30;67.30;;;36.90;;
35518;SDS011;21627;48.216;16.482;2022-10-15T03:07:58;72.85;;;37.35;;
35518;SDS011;21627;48.216;16.482;2022-10-15T03:10:25;68.78;;;37.67;;
35518;SDS011;21627;48.216;16.482;2022-10-15T03:12:53;74.65;;;35.83;;
35518;SDS011;21627;48.216;16.482;2022-10-15T03:15:23;67.32;;;37.28;;
35518;SDS011;21627;48.216;16.482;2022-10-15T03:17:50;70.88;;;37.38;;
35518;SDS011;21627;48.216;16.482;2022-10-15T03:20:18;66.47;;;36.28;;
35518;SDS011;21627;48.216;16.482;2022-10-15T03:22:45;65.45;;;34.92;;
35518;SDS011;21627;48.216;16.482;2022-10-15T03:25:12;73.50;;;38.58;;
35518;SDS011;21627;48.216;16.482;2022-10-15T03:27:46;65.90;;;36.53;;
35518;SDS011;21627;48.216;16.482;2022-10-15T03:30:13;73.22;;;37.38;;
35518;SDS011;21627;48.216;16.482;2022-10-15T03:32:40;73.90;;;39.08;;
35518;SDS011;21627;48.216;16.482;2022-10-15T03:35:08;71.22;;;38.65;;
35518;SDS011;21627;48.216;16.482;2022-10-15T03:37:38;65.10;;;36.20;;
35518;SDS011;21627;48.216;16.482;2022-10-15T03:40:08;70.55;;;38.05;;
35518;SDS011;21627;48.216;16.482;2022-10-15T03:42:43;67.03;;;35.25;;
35518;SDS011;21627;48.216;16.482;2022-10-15T03:45:13;70.95;;;38.45;;
35518;SDS011;21627;48.216;16.482;2022-10-15T03:47:41;75.85;;;38.15;;
35518;SDS011;21627;48.216;16.482;2022-10-15T03:50:08;71.93;;;38.42;;
35518;SDS011;21627;48.216;16.482;2022-10-15T03:52:36;70.60;;;37.85;;
35518;SDS011;21627;48.216;16.482;2022-10-15T03:55:04;71.82;;;39.92;;
35518;SDS011;21627;48.216;16.482;2022-10-15T03:57:32;69.82;;;37.13;;
35518;SDS011;21627;48.216;16.482;2022-10-15T04:00:00;70.60;;;36.78;;
35518;SDS011;21627;48.216;16.482;2022-10-15T04:02:29;68.90;;;37.22;;
35518;SDS011;21627;48.216;16.482;2022-10-15T04:04:57;73.60;;;38.80;;
35518;SDS011;21627;48.216;16.482;2022-10-15T04:07:24;71.78;;;37.88;;
35518;SDS011;21627;48.216;16.482;2022-10-15T04:09:51;65.55;;;36.58;;
35518;SDS011;21627;48.216;16.482;2022-10-15T04:12:25;67.20;;;36.92;;
35518;SDS011;21627;48.216;16.482;2022-10-15T04:14:52;64.32;;;35.05;;
35518;SDS011;21627;48.216;16.482;2022-10-15T04:17:22;67.18;;;37.25;;
35518;SDS011;21627;48.216;16.482;2022-10-15T04:19:53;72.05;;;38.08;;
35518;SDS011;21627;48.216;16.482;2022-10-15T04:22:20;77.90;;;39.90;;
35518;SDS011;21627;48.216;16.482;2022-10-15T04:24:47;66.00;;;36.30;;
35518;SDS011;21627;48.216;16.482;2022-10-15T04:27:24;69.82;;;37.33;;
35518;SDS011;21627;48.216;16.482;2022-10-15T04:29:51;65.07;;;36.75;;
35518;SDS011;21627;48.216;16.482;2022-10-15T04:32:18;67.82;;;36.75;;
35518;SDS011;21627;48.216;16.482;2022-10-15T04:34:46;77.28;;;40.60;;
35518;SDS011;21627;48.216;16.482;2022-10-15T04:37:16;71.93;;;39.17;;
35518;SDS011;21627;48.216;16.482;2022-10-15T04:39:43;69.95;;;38.92;;
35518;SDS011;21627;48.216;16.482;2022-10-15T04:42:13;65.22;;;36.20;;
35518;SDS011;21627;48.216;16.482;2022-10-15T04:44:41;67.65;;;37.60;;
35518;SDS011;21627;48.216;16.482;2022-10-15T04:47:08;75.15;;;38.22;;
35518;SDS011;21627;48.216;16.482;2022-10-15T04:49:38;69.55;;;36.75;;
35518;SDS011;21627;48.216;16.482;2022-10-15T04:52:05;70.97;;;38.35;;
35518;SDS011;21627;48.216;16.482;2022-10-15T04:54:42;74.15;;;38.78;;
35518;SDS011;21627;48.216;16.482;2022-10-15T04:57:12;71.43;;;38.20;;
35518;SDS011;21627;48.216;16.482;2022-10-15T04:59:42;74.50;;;41.17;;
35518;SDS011;21627;48.216;16.482;2022-10-15T05:02:10;76.28;;;38.45;;
35518;SDS011;21627;48.216;16.482;2022-10-15T05:04:37;75.80;;;41.60;;
35518;SDS011;21627;48.216;16.482;2022-10-15T05:07:04;71.28;;;37.20;;
35518;SDS011;21627;48.216;16.482;2022-10-15T05:09:31;72.88;;;38.78;;
35518;SDS011;21627;48.216;16.482;2022-10-15T05:12:02;71.03;;;37.90;;
35518;SDS011;21627;48.216;16.482;2022-10-15T05:14:36;73.25;;;39.30;;
35518;SDS011;21627;48.216;16.482;2022-10-15T05:17:03;68.53;;;36.17;;
35518;SDS011;21627;48.216;16.482;2022-10-15T05:19:30;62.70;;;36.35;;
35518;SDS011;21627;48.216;16.482;2022-10-15T05:21:57;64.43;;;36.47;;
35518;SDS011;21627;48.216;16.482;2022-10-15T05:24:30;71.70;;;38.35;;
35518;SDS011;21627;48.216;16.482;2022-10-15T05:27:01;60.72;;;35.65;;
35518;SDS011;21627;48.216;16.482;2022-10-15T05:29:28;66.80;;;36.80;;
35518;SDS011;21627;48.216;16.482;2022-10-15T05:31:55;71.22;;;38.65;;
35518;SDS011;21627;48.216;16.482;2022-10-15T05:34:22;71.10;;;38.28;;
35518;SDS011;21627;48.216;16.482;2022-10-15T05:36:52;65.05;;;36.47;;
35518;SDS011;21627;48.216;16.482;2022-10-15T05:39:19;74.07;;;38.33;;
35518;SDS011;21627;48.216;16.482;2022-10-15T05:41:50;69.60;;;38.17;;
35518;SDS011;21627;48.216;16.482;2022-10-15T05:44:18;64.97;;;35.58;;
35518;SDS011;21627;48.216;16.482;2022-10-15T05:46:46;65.75;;;36.65;;
35518;SDS011;21627;48.216;16.482;2022-10-15T05:49:14;68.05;;;36.55;;
35518;SDS011;21627;48.216;16.482;2022-10-15T05:51:44;71.40;;;38.38;;
35518;SDS011;21627;48.216;16.482;2022-10-15T05:54:12;76.05;;;40.60;;
35518;SDS011;21627;48.216;16.482;2022-10-15T05:56:39;77.72;;;42.67;;
35518;SDS011;21627;48.216;16.482;2022-10-15T05:59:09;79.00;;;41.28;;
35518;SDS011;21627;48.216;16.482;2022-10-15T06:01:36;77.13;;;42.58;;
35518;SDS011;21627;48.216;16.482;2022-10-15T06:04:03;81.05;;;42.72;;
35518;SDS011;21627;48.216;16.482;2022-10-15T06:06:34;76.15;;;42.25;;
35518;SDS011;21627;48.216;16.482;2022-10-15T06:09:01;79.88;;;43.97;;
35518;SDS011;21627;48.216;16.482;2022-10-15T06:11:28;76.38;;;41.13;;
35518;SDS011;21627;48.216;16.482;2022-10-15T06:13:56;78.70;;;43.80;;
35518;SDS011;21627;48.216;16.482;2022-10-15T06:16:23;80.78;;;43.47;;
35518;SDS011;21627;48.216;16.482;2022-10-15T06:18:56;76.70;;;42.03;;
35518;SDS011;21627;48.216;16.482;2022-10-15T06:21:23;78.32;;;41.50;;
35518;SDS011;21627;48.216;16.482;2022-10-15T06:23:51;78.03;;;41.92;;
35518;SDS011;21627;48.216;16.482;2022-10-15T06:26:18;78.50;;;41.13;;
35518;SDS011;21627;48.216;16.482;2022-10-15T06:28:45;79.15;;;41.83;;
35518;SDS011;21627;48.216;16.482;2022-10-15T06:31:18;73.20;;;40.17;;
35518;SDS011;21627;48.216;16.482;2022-10-15T06:33:45;66.78;;;38.45;;
35518;SDS011;21627;48.216;16.482;2022-10-15T06:36:13;81.65;;;41.95;;
35518;SDS011;21627;48.216;16.482;2022-10-15T06:38:40;71.88;;;39.67;;
35518;SDS011;21627;48.216;16.482;2022-10-15T06:41:11;71.07;;;39.38;;
35518;SDS011;21627;48.216;16.482;2022-10-15T06:43:39;81.60;;;42.30;;
35518;SDS011;21627;48.216;16.482;2022-10-15T06:46:09;78.07;;;41.63;;
35518;SDS011;21627;48.216;16.482;2022-10-15T06:48:43;77.22;;;41.88;;
35518;SDS011;21627;48.216;16.482;2022-10-15T06:51:16;76.93;;;41.80;;
35518;SDS011;21627;48.216;16.482;2022-10-15T06:53:43;83.93;;;43.00;;
35518;SDS011;21627;48.216;16.482;2022-10-15T06:56:10;73.82;;;40.63;;
35518;SDS011;21627;48.216;16.482;2022-10-15T06:58:39;76.38;;;41.67;;
35518;SDS011;21627;48.216;16.482;2022-10-15T07:01:12;76.35;;;42.63;;
35518;SDS011;21627;48.216;16.482;2022-10-15T07:03:39;82.53;;;43.47;;
35518;SDS011;21627;48.216;16.482;2022-10-15T07:06:07;74.72;;;40.47;;
35518;SDS011;21627;48.216;16.482;2022-10-15T07:08:35;77.65;;;41.03;;
35518;SDS011;21627;48.216;16.482;2022-10-15T07:11:03;75.43;;;41.70;;
35518;SDS011;21627;48.216;16.482;2022-10-15T07:13:32;72.13;;;41.10;;
35518;SDS011;21627;48.216;16.482;2022-10-15T07:16:06;79.68;;;44.05;;
35518;SDS011;21627;48.216;16.482;2022-10-15T07:21:03;74.18;;;40.05;;
35518;SDS011;21627;48.216;16.482;2022-10-15T07:23:36;73.60;;;41.28;;
35518;SDS011;21627;48.216;16.482;2022-10-15T07:26:12;70.32;;;39.78;;
35518;SDS011;21627;48.216;16.482;2022-10-15T07:28:40;73.80;;;40.05;;
35518;SDS011;21627;48.216;16.482;2022-10-15T07:31:07;77.40;;;41.75;;
35518;SDS011;21627;48.216;16.482;2022-10-15T07:33:43;74.07;;;42.45;;
35518;SDS011;21627;48.216;16.482;2022-10-15T07:36:14;76.13;;;40.38;;
35518;SDS011;21627;48.216;16.482;2022-10-15T07:38:45;76.10;;;41.28;;
35518;SDS011;21627;48.216;16.482;2022-10-15T07:41:12;71.60;;;41.60;;
35518;SDS011;21627;48.216;16.482;2022-10-15T07:43:43;77.60;;;40.90;;
35518;SDS011;21627;48.216;16.482;2022-10-15T07:46:10;72.30;;;40.70;;
35518;SDS011;21627;48.216;16.482;2022-10-15T07:48:38;72.72;;;42.38;;
35518;SDS011;21627;48.216;16.482;2022-10-15T07:51:06;74.70;;;41.92;;
35518;SDS011;21627;48.216;16.482;2022-10-15T07:53:33;75.15;;;41.92;;
35518;SDS011;21627;48.216;16.482;2022-10-15T07:56:07;74.20;;;42.47;;
35518;SDS011;21627;48.216;16.482;2022-10-15T07:58:37;68.00;;;39.60;;
35518;SDS011;21627;48.216;16.482;2022-10-15T08:01:08;69.25;;;40.80;;
35518;SDS011;21627;48.216;16.482;2022-10-15T08:03:36;70.25;;;40.75;;
35518;SDS011;21627;48.216;16.482;2022-10-15T08:06:04;69.13;;;39.65;;
35518;SDS011;21627;48.216;16.482;2022-10-15T08:08:33;69.82;;;39.30;;
35518;SDS011;21627;48.216;16.482;2022-10-15T08:11:06;68.88;;;39.75;;
35518;SDS011;21627;48.216;16.482;2022-10-15T08:13:37;66.10;;;37.50;;
35518;SDS011;21627;48.216;16.482;2022-10-15T08:16:07;76.85;;;39.83;;
35518;SDS011;21627;48.216;16.482;2022-10-15T08:18:36;65.80;;;37.97;;
35518;SDS011;21627;48.216;16.482;2022-10-15T08:21:05;66.95;;;38.58;;
35518;SDS011;21627;48.216;16.482;2022-10-15T08:23:34;67.15;;;38.42;;
35518;SDS011;21627;48.216;16.482;2022-10-15T08:26:01;66.57;;;39.25;;
35518;SDS011;21627;48.216;16.482;2022-10-15T08:28:33;68.45;;;39.53;;
35518;SDS011;21627;48.216;16.482;2022-10-15T08:31:01;69.07;;;39.38;;
35518;SDS011;21627;48.216;16.482;2022-10-15T08:33:35;67.50;;;40.92;;
35518;SDS011;21627;48.216;16.482;2022-10-15T08:36:04;60.88;;;37.78;;
35518;SDS011;21627;48.216;16.482;2022-10-15T08:38:35;59.03;;;35.72;;
35518;SDS011;21627;48.216;16.482;2022-10-15T08:41:04;63.17;;;36.40;;
35518;SDS011;21627;48.216;16.482;2022-10-15T08:43:53;65.95;;;37.38;;
35518;SDS011;21627;48.216;16.482;2022-10-15T08:46:22;66.15;;;37.30;;
35518;SDS011;21627;48.216;16.482;2022-10-15T08:48:59;64.93;;;37.45;;
35518;SDS011;21627;48.216;16.482;2022-10-15T08:51:37;68.47;;;39.08;;
35518;SDS011;21627;48.216;16.482;2022-10-15T08:54:14;64.43;;;37.13;;
35518;SDS011;21627;48.216;16.482;2022-10-15T08:56:44;63.53;;;39.30;;
35518;SDS011;21627;48.216;16.482;2022-10-15T08:59:38;65.10;;;36.97;;
35518;SDS011;21627;48.216;16.482;2022-10-15T09:02:28;61.13;;;36.38;;
35518;SDS011;21627;48.216;16.482;2022-10-15T09:10:56;60.08;;;35.28;;
35518;SDS011;21627;48.216;16.482;2022-10-15T09:13:44;63.05;;;36.45;;
35518;SDS011;21627;48.216;16.482;2022-10-15T09:16:17;62.35;;;37.03;;
35518;SDS011;21627;48.216;16.482;2022-10-15T09:18:55;66.75;;;37.55;;
35518;SDS011;21627;48.216;16.482;2022-10-15T09:21:32;70.85;;;39.05;;
35518;SDS011;21627;48.216;16.482;2022-10-15T09:24:08;62.58;;;37.10;;
35518;SDS011;21627;48.216;16.482;2022-10-15T09:29:36;69.65;;;38.65;;
35518;SDS011;21627;48.216;16.482;2022-10-15T09:32:24;66.78;;;39.78;;
35518;SDS011;21627;48.216;16.482;2022-10-15T09:38:30;74.70;;;39.15;;
35518;SDS011;21627;48.216;16.482;2022-10-15T09:44:07;62.33;;;36.95;;
35518;SDS011;21627;48.216;16.482;2022-10-15T09:46:44;58.28;;;37.33;;
35518;SDS011;21627;48.216;16.482;2022-10-15T09:49:15;58.40;;;36.35;;
35518;SDS011;21627;48.216;16.482;2022-10-15T09:57:45;61.90;;;35.22;;
35518;SDS011;21627;48.216;16.482;2022-10-15T10:00:17;58.05;;;34.72;;
35518;SDS011;21627;48.216;16.482;2022-10-15T10:02:44;57.50;;;35.00;;
35518;SDS011;21627;48.216;16.482;2022-10-15T10:05:49;65.10;;;34.60;;
35518;SDS011;21627;48.216;16.482;2022-10-15T10:08:26;59.45;;;33.38;;
35518;SDS011;21627;48.216;16.482;2022-10-15T10:11:11;51.92;;;30.67;;
35518;SDS011;21627;48.216;16.482;2022-10-15T10:13:45;50.30;;;31.60;;
35518;SDS011;21627;48.216;16.482;2022-10-15T10:16:23;50.33;;;30.63;;
35518;SDS011;21627;48.216;16.482;2022-10-15T10:21:41;53.15;;;29.90;;
35518;SDS011;21627;48.216;16.482;2022-10-15T10:27:00;52.30;;;31.25;;
35518;SDS011;21627;48.216;16.482;2022-10-15T10:29:35;49.72;;;29.67;;
35518;SDS011;21627;48.216;16.482;2022-10-15T10:32:17;47.72;;;29.80;;
35518;SDS011;21627;48.216;16.482;2022-10-15T10:34:47;48.80;;;29.67;;
35518;SDS011;21627;48.216;16.482;2022-10-15T10:37:27;48.65;;;29.55;;
35518;SDS011;21627;48.216;16.482;2022-10-15T10:39:55;45.55;;;28.30;;
35518;SDS011;21627;48.216;16.482;2022-10-15T10:42:32;43.60;;;29.63;;
35518;SDS011;21627;48.216;16.482;2022-10-15T10:45:16;44.13;;;28.42;;
35518;SDS011;21627;48.216;16.482;2022-10-15T10:47:47;41.47;;;26.90;;
35518;SDS011;21627;48.216;16.482;2022-10-15T10:50:25;43.30;;;27.85;;
35518;SDS011;21627;48.216;16.482;2022-10-15T10:53:10;45.42;;;27.85;;
35518;SDS011;21627;48.216;16.482;2022-10-15T10:55:46;43.80;;;27.38;;
35518;SDS011;21627;48.216;16.482;2022-10-15T10:58:19;43.88;;;26.88;;
35518;SDS011;21627;48.216;16.482;2022-10-15T11:00:55;48.08;;;29.10;;
35518;SDS011;21627;48.216;16.482;2022-10-15T11:03:37;42.45;;;27.83;;
35518;SDS011;21627;48.216;16.482;2022-10-15T11:09:09;46.20;;;29.88;;
35518;SDS011;21627;48.216;16.482;2022-10-15T11:17:27;47.70;;;29.15;;
35518;SDS011;21627;48.216;16.482;2022-10-15T11:20:25;48.15;;;28.95;;
35518;SDS011;21627;48.216;16.482;2022-10-15T11:33:08;42.45;;;26.63;;
35518;SDS011;21627;48.216;16.482;2022-10-15T11:36:18;42.10;;;27.15;;
35518;SDS011;21627;48.216;16.482;2022-10-15T11:42:37;55.00;;;26.92;;
35518;SDS011;21627;48.216;16.482;2022-10-15T11:45:32;42.08;;;26.55;;
35518;SDS011;21627;48.216;16.482;2022-10-15T11:56:45;41.85;;;26.35;;
35518;SDS011;21627;48.216;16.482;2022-10-15T12:01:48;45.10;;;27.02;;
35518;SDS011;21627;48.216;16.482;2022-10-15T12:07:40;43.60;;;25.52;;
35518;SDS011;21627;48.216;16.482;2022-10-15T12:13:18;47.75;;;27.98;;
35518;SDS011;21627;48.216;16.482;2022-10-15T12:16:07;48.17;;;30.67;;
35518;SDS011;21627;48.216;16.482;2022-10-15T12:27:13;52.42;;;29.15;;
35518;SDS011;21627;48.216;16.482;2022-10-15T12:29:47;51.05;;;30.45;;
35518;SDS011;21627;48.216;16.482;2022-10-15T12:37:40;54.08;;;32.47;;
35518;SDS011;21627;48.216;16.482;2022-10-15T12:40:28;55.50;;;34.28;;
35518;SDS011;21627;48.216;16.482;2022-10-15T12:43:03;53.45;;;32.72;;
35518;SDS011;21627;48.216;16.482;2022-10-15T12:45:50;59.50;;;33.15;;
35518;SDS011;21627;48.216;16.482;2022-10-15T12:48:35;56.60;;;32.83;;
35518;SDS011;21627;48.216;16.482;2022-10-15T12:53:45;59.90;;;34.00;;
35518;SDS011;21627;48.216;16.482;2022-10-15T12:56:21;61.10;;;35.08;;
35518;SDS011;21627;48.216;16.482;2022-10-15T12:59:14;65.70;;;36.33;;
35518;SDS011;21627;48.216;16.482;2022-10-15T13:05:27;56.13;;;34.58;;
35518;SDS011;21627;48.216;16.482;2022-10-15T13:07:58;60.22;;;34.80;;
35518;SDS011;21627;48.216;16.482;2022-10-15T13:10:33;59.80;;;35.20;;
35518;SDS011;21627;48.216;16.482;2022-10-15T13:13:12;57.20;;;33.17;;
35518;SDS011;21627;48.216;16.482;2022-10-15T13:15:48;51.88;;;29.63;;
35518;SDS011;21627;48.216;16.482;2022-10-15T13:18:34;48.25;;;31.02;;
35518;SDS011;21627;48.216;16.482;2022-10-15T13:21:01;57.40;;;30.88;;
35518;SDS011;21627;48.216;16.482;2022-10-15T13:23:33;58.55;;;32.75;;
35518;SDS011;21627;48.216;16.482;2022-10-15T13:26:23;56.70;;;33.03;;
35518;SDS011;21627;48.216;16.482;2022-10-15T13:28:55;51.97;;;32.35;;
35518;SDS011;21627;48.216;16.482;2022-10-15T13:31:30;56.85;;;32.97;;
35518;SDS011;21627;48.216;16.482;2022-10-15T13:37:04;66.15;;;36.05;;
35518;SDS011;21627;48.216;16.482;2022-10-15T13:39:41;65.18;;;35.42;;
35518;SDS011;21627;48.216;16.482;2022-10-15T13:42:15;62.88;;;35.42;;
35518;SDS011;21627;48.216;16.482;2022-10-15T13:44:56;58.55;;;35.90;;
35518;SDS011;21627;48.216;16.482;2022-10-15T13:47:41;63.50;;;36.65;;
35518;SDS011;21627;48.216;16.482;2022-10-15T13:50:36;59.25;;;34.75;;
35518;SDS011;21627;48.216;16.482;2022-10-15T13:55:50;64.45;;;34.00;;
35518;SDS011;21627;48.216;16.482;2022-10-15T13:58:27;60.47;;;35.13;;
35518;SDS011;21627;48.216;16.482;2022-10-15T14:01:14;61.97;;;36.55;;
35518;SDS011;21627;48.216;16.482;2022-10-15T14:06:22;61.75;;;35.80;;
35518;SDS011;21627;48.216;16.482;2022-10-15T14:09:19;66.50;;;37.40;;
35518;SDS011;21627;48.216;16.482;2022-10-15T14:11:53;63.00;;;36.13;;
35518;SDS011;21627;48.216;16.482;2022-10-15T14:14:42;58.05;;;35.38;;
35518;SDS011;21627;48.216;16.482;2022-10-15T14:22:47;63.03;;;35.80;;
35518;SDS011;21627;48.216;16.482;2022-10-15T14:25:21;65.03;;;36.42;;
35518;SDS011;21627;48.216;16.482;2022-10-15T14:27:51;62.30;;;34.72;;
35518;SDS011;21627;48.216;16.482;2022-10-15T14:30:26;64.20;;;36.15;;
35518;SDS011;21627;48.216;16.482;2022-10-15T14:33:04;64.43;;;35.97;;
35518;SDS011;21627;48.216;16.482;2022-10-15T14:39:15;62.08;;;36.75;;
35518;SDS011;21627;48.216;16.482;2022-10-15T14:42:02;64.97;;;36.67;;
35518;SDS011;21627;48.216;16.482;2022-10-15T14:44:50;69.38;;;38.30;;
35518;SDS011;21627;48.216;16.482;2022-10-15T14:47:28;64.97;;;38.97;;
35518;SDS011;21627;48.216;16.482;2022-10-15T14:49:59;64.82;;;38.63;;
35518;SDS011;21627;48.216;16.482;2022-10-15T14:52:36;72.75;;;41.67;;
35518;SDS011;21627;48.216;16.482;2022-10-15T14:55:25;66.93;;;40.10;;
35518;SDS011;21627;48.216;16.482;2022-10-15T14:58:09;73.07;;;39.67;;
35518;SDS011;21627;48.216;16.482;2022-10-15T15:00:44;66.00;;;39.08;;
35518;SDS011;21627;48.216;16.482;2022-10-15T15:03:25;68.75;;;38.17;;
35518;SDS011;21627;48.216;16.482;2022-10-15T15:06:03;63.83;;;37.45;;
35518;SDS011;21627;48.216;16.482;2022-10-15T15:08:34;63.75;;;38.78;;
35518;SDS011;21627;48.216;16.482;2022-10-15T15:11:06;64.90;;;39.00;;
35518;SDS011;21627;48.216;16.482;2022-10-15T15:13:39;72.97;;;42.63;;
35518;SDS011;21627;48.216;16.482;2022-10-15T15:16:13;64.78;;;41.10;;
35518;SDS011;21627;48.216;16.482;2022-10-15T15:18:43;75.68;;;42.60;;
35518;SDS011;21627;48.216;16.482;2022-10-15T15:21:13;77.57;;;41.50;;
35518;SDS011;21627;48.216;16.482;2022-10-15T15:23:45;68.57;;;42.55;;
35518;SDS011;21627;48.216;16.482;2022-10-15T15:26:14;76.57;;;44.13;;
35518;SDS011;21627;48.216;16.482;2022-10-15T15:28:44;74.90;;;43.05;;
35518;SDS011;21627;48.216;16.482;2022-10-15T15:31:18;72.22;;;41.70;;
35518;SDS011;21627;48.216;16.482;2022-10-15T15:33:45;73.45;;;43.80;;
35518;SDS011;21627;48.216;16.482;2022-10-15T15:36:13;76.32;;;42.72;;
35518;SDS011;21627;48.216;16.482;2022-10-15T15:38:49;72.55;;;42.83;;
35518;SDS011;21627;48.216;16.482;2022-10-15T15:41:20;68.97;;;40.30;;
35518;SDS011;21627;48.216;16.482;2022-10-15T15:43:49;73.72;;;41.88;;
35518;SDS011;21627;48.216;16.482;2022-10-15T15:46:18;69.03;;;40.75;;
35518;SDS011;21627;48.216;16.482;2022-10-15T15:48:45;68.88;;;40.80;;
35518;SDS011;21627;48.216;16.482;2022-10-15T15:51:19;73.78;;;42.25;;
35518;SDS011;21627;48.216;16.482;2022-10-15T15:53:51;69.40;;;39.97;;
35518;SDS011;21627;48.216;16.482;2022-10-15T15:56:18;70.13;;;41.13;;
35518;SDS011;21627;48.216;16.482;2022-10-15T15:58:45;75.55;;;43.25;;
35518;SDS011;21627;48.216;16.482;2022-10-15T16:01:15;71.20;;;41.95;;
35518;SDS011;21627;48.216;16.482;2022-10-15T16:03:53;70.40;;;42.22;;
35518;SDS011;21627;48.216;16.482;2022-10-15T16:06:29;69.38;;;42.50;;
35518;SDS011;21627;48.216;16.482;2022-10-15T16:08:56;67.68;;;42.17;;
35518;SDS011;21627;48.216;16.482;2022-10-15T16:11:31;71.07;;;41.58;;
35518;SDS011;21627;48.216;16.482;2022-10-15T16:13:59;74.80;;;42.13;;
35518;SDS011;21627;48.216;16.482;2022-10-15T16:16:26;83.35;;;48.00;;
35518;SDS011;21627;48.216;16.482;2022-10-15T16:18:56;77.97;;;44.50;;
35518;SDS011;21627;48.216;16.482;2022-10-15T16:21:24;71.18;;;41.75;;
35518;SDS011;21627;48.216;16.482;2022-10-15T16:23:55;78.32;;;43.83;;
35518;SDS011;21627;48.216;16.482;2022-10-15T16:26:22;79.30;;;41.05;;
35518;SDS011;21627;48.216;16.482;2022-10-15T16:28:53;70.35;;;40.63;;
35518;SDS011;21627;48.216;16.482;2022-10-15T16:31:25;72.22;;;39.08;;
35518;SDS011;21627;48.216;16.482;2022-10-15T16:34:01;64.30;;;38.25;;
35518;SDS011;21627;48.216;16.482;2022-10-15T16:36:33;75.28;;;39.22;;
35518;SDS011;21627;48.216;16.482;2022-10-15T16:39:04;61.60;;;39.30;;
35518;SDS011;21627;48.216;16.482;2022-10-15T16:41:32;72.50;;;40.55;;
35518;SDS011;21627;48.216;16.482;2022-10-15T16:43:59;61.85;;;36.65;;
35518;SDS011;21627;48.216;16.482;2022-10-15T16:46:32;58.30;;;37.00;;
35518;SDS011;21627;48.216;16.482;2022-10-15T16:48:59;60.25;;;34.72;;
35518;SDS011;21627;48.216;16.482;2022-10-15T16:51:30;58.38;;;35.20;;